sensor_id;sensor_type;location;lat;lon;timestamp;pressure;altitude;pressure_sealevel;temperature;humidity
76827;BME280;65788;52.284;20.890;2023-05-20T00:02:08;101527.99;;;20.85;43.67
76827;BME280;65788;52.284;20.890;2023-05-20T00:04:35;101524.69;;;20.83;43.65
76827;BME280;65788;52.284;20.890;2023-05-20T00:07:02;101528.54;;;20.82;43.72
76827;BME280;65788;52.284;20.890;2023-05-20T00:09:30;101527.24;;;20.81;43.70
76827;BME280;65788;52.284;20.890;2023-05-20T00:11:57;101521.28;;;20.80;43.70
76827;BME280;65788;52.284;20.890;2023-05-20T00:14:23;101521.19;;;20.77;43.82
76827;BME280;65788;52.284;20.890;2023-05-20T00:16:50;101522.20;;;20.75;43.93
76827;BME280;65788;52.284;20.890;2023-05-20T00:19:17;101517.67;;;20.71;44.08
76827;BME280;65788;52.284;20.890;2023-05-20T00:21:44;101516.25;;;20.69;44.11
76827;BME280;65788;52.284;20.890;2023-05-20T00:24:10;101510.28;;;20.67;44.17
76827;BME280;65788;52.284;20.890;2023-05-20T00:26:38;101509.83;;;20.59;44.46
76827;BME280;65788;52.284;20.890;2023-05-20T00:29:04;101512.37;;;20.55;44.57
76827;BME280;65788;52.284;20.890;2023-05-20T00:31:31;101511.45;;;20.52;44.66
76827;BME280;65788;52.284;20.890;2023-05-20T00:33:58;101510.04;;;20.52;44.70
76827;BME280;65788;52.284;20.890;2023-05-20T00:36:25;101508.08;;;20.47;44.83
76827;BME280;65788;52.284;20.890;2023-05-20T00:38:53;101510.67;;;20.44;44.92
76827;BME280;65788;52.284;20.890;2023-05-20T00:41:20;101510.71;;;20.44;44.92
76827;BME280;65788;52.284;20.890;2023-05-20T00:43:47;101504.62;;;20.41;45.01
76827;BME280;65788;52.284;20.890;2023-05-20T00:46:14;101504.98;;;20.38;45.10
76827;BME280;65788;52.284;20.890;2023-05-20T00:48:42;101502.70;;;20.38;45.11
76827;BME280;65788;52.284;20.890;2023-05-20T00:51:10;101503.61;;;20.39;45.11
76827;BME280;65788;52.284;20.890;2023-05-20T00:53:38;101504.02;;;20.35;45.14
76827;BME280;65788;52.284;20.890;2023-05-20T00:56:07;101505.50;;;20.33;45.22
76827;BME280;65788;52.284;20.890;2023-05-20T00:58:34;101504.88;;;20.30;45.27
76827;BME280;65788;52.284;20.890;2023-05-20T01:01:06;101508.25;;;20.29;45.29
76827;BME280;65788;52.284;20.890;2023-05-20T01:03:33;101511.36;;;20.28;45.33
76827;BME280;65788;52.284;20.890;2023-05-20T01:06:01;101505.98;;;20.29;45.30
76827;BME280;65788;52.284;20.890;2023-05-20T01:08:29;101505.45;;;20.29;45.29
76827;BME280;65788;52.284;20.890;2023-05-20T01:11:15;101508.45;;;20.26;45.35
76827;BME280;65788;52.284;20.890;2023-05-20T01:13:50;101506.51;;;20.25;45.34
76827;BME280;65788;52.284;20.890;2023-05-20T01:16:21;101508.89;;;20.24;45.36
76827;BME280;65788;52.284;20.890;2023-05-20T01:18:50;101505.56;;;20.24;45.34
76827;BME280;65788;52.284;20.890;2023-05-20T01:21:21;101507.95;;;20.23;45.35
76827;BME280;65788;52.284;20.890;2023-05-20T01:23:48;101507.44;;;20.24;45.30
76827;BME280;65788;52.284;20.890;2023-05-20T01:26:15;101506.54;;;20.23;45.30
76827;BME280;65788;52.284;20.890;2023-05-20T01:28:42;101504.91;;;20.23;45.30
76827;BME280;65788;52.284;20.890;2023-05-20T01:31:14;101508.77;;;20.20;45.34
76827;BME280;65788;52.284;20.890;2023-05-20T01:33:51;101508.64;;;20.20;45.35
76827;BME280;65788;52.284;20.890;2023-05-20T01:36:20;101506.20;;;20.19;45.33
76827;BME280;65788;52.284;20.890;2023-05-20T01:38:48;101500.59;;;20.18;45.36
76827;BME280;65788;52.284;20.890;2023-05-20T01:41:16;101501.61;;;20.17;45.36
76827;BME280;65788;52.284;20.890;2023-05-20T01:43:44;101499.77;;;20.17;45.35
76827;BME280;65788;52.284;20.890;2023-05-20T01:46:12;101499.90;;;20.16;45.37
76827;BME280;65788;52.284;20.890;2023-05-20T01:48:39;101501.59;;;20.15;45.40
76827;BME280;65788;52.284;20.890;2023-05-20T01:51:06;101499.32;;;20.14;45.40
76827;BME280;65788;52.284;20.890;2023-05-20T01:53:33;101497.76;;;20.12;45.44
76827;BME280;65788;52.284;20.890;2023-05-20T01:56:00;101495.77;;;20.09;45.49
76827;BME280;65788;52.284;20.890;2023-05-20T01:58:27;101493.73;;;20.10;45.48
76827;BME280;65788;52.284;20.890;2023-05-20T02:00:53;101488.17;;;20.09;45.46
76827;BME280;65788;52.284;20.890;2023-05-20T02:03:20;101486.36;;;20.08;45.46
76827;BME280;65788;52.284;20.890;2023-05-20T02:05:48;101488.40;;;20.06;45.49
76827;BME280;65788;52.284;20.890;2023-05-20T02:08:15;101487.45;;;20.05;45.51
76827;BME280;65788;52.284;20.890;2023-05-20T02:10:41;101485.77;;;20.05;45.51
76827;BME280;65788;52.284;20.890;2023-05-20T02:13:08;101486.75;;;20.04;45.50
76827;BME280;65788;52.284;20.890;2023-05-20T02:15:35;101484.65;;;20.03;45.51
76827;BME280;65788;52.284;20.890;2023-05-20T02:18:02;101484.13;;;20.02;45.54
76827;BME280;65788;52.284;20.890;2023-05-20T02:20:34;101492.55;;;20.01;45.54
76827;BME280;65788;52.284;20.890;2023-05-20T02:23:02;101495.56;;;20.01;45.55
76827;BME280;65788;52.284;20.890;2023-05-20T02:25:31;101497.25;;;20.01;45.54
76827;BME280;65788;52.284;20.890;2023-05-20T02:27:58;101497.41;;;19.99;45.53
76827;BME280;65788;52.284;20.890;2023-05-20T02:30:25;101497.81;;;19.98;45.58
76827;BME280;65788;52.284;20.890;2023-05-20T02:32:52;101491.84;;;19.98;45.58
76827;BME280;65788;52.284;20.890;2023-05-20T02:35:19;101496.70;;;19.98;45.55
76827;BME280;65788;52.284;20.890;2023-05-20T02:37:45;101494.23;;;19.95;45.62
76827;BME280;65788;52.284;20.890;2023-05-20T02:40:14;101501.09;;;19.97;45.58
76827;BME280;65788;52.284;20.890;2023-05-20T02:42:41;101503.39;;;19.95;45.61
76827;BME280;65788;52.284;20.890;2023-05-20T02:45:08;101502.31;;;19.95;45.60
76827;BME280;65788;52.284;20.890;2023-05-20T02:47:35;101505.48;;;19.96;45.56
76827;BME280;65788;52.284;20.890;2023-05-20T02:50:01;101502.92;;;19.97;45.55
76827;BME280;65788;52.284;20.890;2023-05-20T02:52:29;101510.10;;;19.96;45.56
76827;BME280;65788;52.284;20.890;2023-05-20T02:54:56;101511.93;;;19.96;45.54
76827;BME280;65788;52.284;20.890;2023-05-20T02:57:23;101507.95;;;19.94;45.57
76827;BME280;65788;52.284;20.890;2023-05-20T02:59:50;101506.10;;;19.94;45.57
76827;BME280;65788;52.284;20.890;2023-05-20T03:02:17;101504.86;;;19.94;45.57
76827;BME280;65788;52.284;20.890;2023-05-20T03:04:44;101505.61;;;19.93;45.55
76827;BME280;65788;52.284;20.890;2023-05-20T03:07:12;101508.31;;;19.93;45.58
76827;BME280;65788;52.284;20.890;2023-05-20T03:09:40;101502.98;;;19.92;45.57
76827;BME280;65788;52.284;20.890;2023-05-20T03:12:10;101500.93;;;19.93;45.57
76827;BME280;65788;52.284;20.890;2023-05-20T03:14:37;101495.54;;;19.93;45.54
76827;BME280;65788;52.284;20.890;2023-05-20T03:17:03;101499.98;;;19.93;45.52
76827;BME280;65788;52.284;20.890;2023-05-20T03:19:30;101504.98;;;19.91;45.55
76827;BME280;65788;52.284;20.890;2023-05-20T03:21:57;101505.23;;;19.92;45.55
76827;BME280;65788;52.284;20.890;2023-05-20T03:24:24;101506.41;;;19.93;45.50
76827;BME280;65788;52.284;20.890;2023-05-20T03:26:51;101506.05;;;19.93;45.49
76827;BME280;65788;52.284;20.890;2023-05-20T03:29:18;101508.11;;;19.94;45.48
76827;BME280;65788;52.284;20.890;2023-05-20T03:31:47;101508.20;;;19.92;45.50
76827;BME280;65788;52.284;20.890;2023-05-20T03:34:14;101509.13;;;19.92;45.50
76827;BME280;65788;52.284;20.890;2023-05-20T03:36:40;101507.89;;;19.92;45.51
76827;BME280;65788;52.284;20.890;2023-05-20T03:39:07;101508.06;;;19.92;45.50
76827;BME280;65788;52.284;20.890;2023-05-20T03:41:34;101509.63;;;19.91;45.50
76827;BME280;65788;52.284;20.890;2023-05-20T03:44:01;101509.06;;;19.94;45.44
76827;BME280;65788;52.284;20.890;2023-05-20T03:46:28;101511.58;;;19.93;45.44
76827;BME280;65788;52.284;20.890;2023-05-20T03:48:56;101510.90;;;19.94;45.40
76827;BME280;65788;52.284;20.890;2023-05-20T03:51:23;101509.82;;;19.93;45.44
76827;BME280;65788;52.284;20.890;2023-05-20T03:53:50;101505.21;;;19.95;45.37
76827;BME280;65788;52.284;20.890;2023-05-20T03:56:17;101504.55;;;19.96;45.35
76827;BME280;65788;52.284;20.890;2023-05-20T03:58:43;101501.23;;;19.96;45.35
76827;BME280;65788;52.284;20.890;2023-05-20T04:01:10;101502.86;;;19.97;45.30
76827;BME280;65788;52.284;20.890;2023-05-20T04:03:40;101504.98;;;19.97;45.33
76827;BME280;65788;52.284;20.890;2023-05-20T04:06:07;101503.95;;;19.96;45.28
76827;BME280;65788;52.284;20.890;2023-05-20T04:08:34;101502.93;;;19.98;45.32
76827;BME280;65788;52.284;20.890;2023-05-20T04:11:04;101506.76;;;19.99;45.58
76827;BME280;65788;52.284;20.890;2023-05-20T04:13:31;101506.39;;;20.02;46.11
76827;BME280;65788;52.284;20.890;2023-05-20T04:15:58;101507.01;;;19.98;46.19
76827;BME280;65788;52.284;20.890;2023-05-20T04:18:27;101505.48;;;20.00;46.00
76827;BME280;65788;52.284;20.890;2023-05-20T04:20:57;101511.13;;;19.99;45.91
76827;BME280;65788;52.284;20.890;2023-05-20T04:23:25;101518.29;;;20.03;45.75
76827;BME280;65788;52.284;20.890;2023-05-20T04:25:52;101516.59;;;20.04;45.67
76827;BME280;65788;52.284;20.890;2023-05-20T04:28:19;101521.61;;;20.06;45.64
76827;BME280;65788;52.284;20.890;2023-05-20T04:30:57;101520.80;;;20.06;45.62
76827;BME280;65788;52.284;20.890;2023-05-20T04:33:25;101521.33;;;20.08;45.58
76827;BME280;65788;52.284;20.890;2023-05-20T04:35:52;101521.56;;;20.11;45.54
76827;BME280;65788;52.284;20.890;2023-05-20T04:38:24;101524.91;;;20.12;45.51
76827;BME280;65788;52.284;20.890;2023-05-20T04:41:00;101522.01;;;20.13;45.49
76827;BME280;65788;52.284;20.890;2023-05-20T04:43:28;101515.81;;;20.15;45.71
76827;BME280;65788;52.284;20.890;2023-05-20T04:45:57;101509.16;;;20.16;45.95
76827;BME280;65788;52.284;20.890;2023-05-20T04:48:25;101507.69;;;20.17;46.24
76827;BME280;65788;52.284;20.890;2023-05-20T04:50:52;101508.77;;;20.19;46.40
76827;BME280;65788;52.284;20.890;2023-05-20T04:53:19;101508.13;;;20.20;46.14
76827;BME280;65788;52.284;20.890;2023-05-20T04:55:49;101504.17;;;20.23;45.90
76827;BME280;65788;52.284;20.890;2023-05-20T04:58:19;101508.69;;;20.27;45.78
76827;BME280;65788;52.284;20.890;2023-05-20T05:00:50;101505.47;;;20.29;45.71
76827;BME280;65788;52.284;20.890;2023-05-20T05:03:17;101506.89;;;20.31;45.64
76827;BME280;65788;52.284;20.890;2023-05-20T05:05:44;101508.23;;;20.32;45.62
76827;BME280;65788;52.284;20.890;2023-05-20T05:08:11;101508.07;;;20.33;45.57
76827;BME280;65788;52.284;20.890;2023-05-20T05:10:38;101513.95;;;20.36;45.43
76827;BME280;65788;52.284;20.890;2023-05-20T05:13:04;101515.20;;;20.38;45.38
76827;BME280;65788;52.284;20.890;2023-05-20T05:15:31;101514.73;;;20.43;45.28
76827;BME280;65788;52.284;20.890;2023-05-20T05:17:58;101517.86;;;20.46;45.18
76827;BME280;65788;52.284;20.890;2023-05-20T05:20:25;101514.22;;;20.50;45.03
76827;BME280;65788;52.284;20.890;2023-05-20T05:22:51;101516.80;;;20.54;44.84
76827;BME280;65788;52.284;20.890;2023-05-20T05:25:18;101514.30;;;20.56;44.66
76827;BME280;65788;52.284;20.890;2023-05-20T05:27:45;101513.23;;;20.56;44.52
76827;BME280;65788;52.284;20.890;2023-05-20T05:30:15;101511.09;;;20.56;44.30
76827;BME280;65788;52.284;20.890;2023-05-20T05:32:42;101511.12;;;20.59;44.29
76827;BME280;65788;52.284;20.890;2023-05-20T05:35:09;101512.88;;;20.61;44.01
76827;BME280;65788;52.284;20.890;2023-05-20T05:37:36;101513.67;;;20.64;44.06
76827;BME280;65788;52.284;20.890;2023-05-20T05:40:04;101515.48;;;20.67;43.95
76827;BME280;65788;52.284;20.890;2023-05-20T05:42:30;101518.06;;;20.67;43.84
76827;BME280;65788;52.284;20.890;2023-05-20T05:44:57;101518.33;;;20.71;43.74
76827;BME280;65788;52.284;20.890;2023-05-20T05:47:24;101521.58;;;20.73;43.61
76827;BME280;65788;52.284;20.890;2023-05-20T05:49:55;101520.38;;;20.72;43.89
76827;BME280;65788;52.284;20.890;2023-05-20T05:52:21;101527.85;;;20.75;43.72
76827;BME280;65788;52.284;20.890;2023-05-20T05:54:48;101522.77;;;20.78;43.66
76827;BME280;65788;52.284;20.890;2023-05-20T05:57:15;101524.73;;;20.82;43.62
76827;BME280;65788;52.284;20.890;2023-05-20T05:59:41;101525.55;;;20.85;43.54
76827;BME280;65788;52.284;20.890;2023-05-20T06:02:09;101524.91;;;20.86;43.53
76827;BME280;65788;52.284;20.890;2023-05-20T06:04:36;101528.21;;;20.86;43.55
76827;BME280;65788;52.284;20.890;2023-05-20T06:07:02;101525.61;;;20.86;43.58
76827;BME280;65788;52.284;20.890;2023-05-20T06:09:29;101524.42;;;20.88;43.40
76827;BME280;65788;52.284;20.890;2023-05-20T06:11:56;101522.67;;;20.90;43.29
76827;BME280;65788;52.284;20.890;2023-05-20T06:14:22;101521.55;;;20.89;43.47
76827;BME280;65788;52.284;20.890;2023-05-20T06:16:49;101520.83;;;20.90;43.51
76827;BME280;65788;52.284;20.890;2023-05-20T06:19:16;101515.05;;;20.90;43.39
76827;BME280;65788;52.284;20.890;2023-05-20T06:21:42;101516.15;;;20.93;43.42
76827;BME280;65788;52.284;20.890;2023-05-20T06:24:09;101516.98;;;20.95;43.34
76827;BME280;65788;52.284;20.890;2023-05-20T06:26:35;101510.72;;;20.97;43.31
76827;BME280;65788;52.284;20.890;2023-05-20T06:29:03;101509.79;;;21.00;43.16
76827;BME280;65788;52.284;20.890;2023-05-20T06:31:29;101509.08;;;21.01;43.16
76827;BME280;65788;52.284;20.890;2023-05-20T06:33:56;101510.08;;;21.04;43.12
76827;BME280;65788;52.284;20.890;2023-05-20T06:36:23;101509.34;;;21.04;43.25
76827;BME280;65788;52.284;20.890;2023-05-20T06:38:49;101507.97;;;21.03;43.26
76827;BME280;65788;52.284;20.890;2023-05-20T06:41:16;101506.98;;;21.06;43.11
76827;BME280;65788;52.284;20.890;2023-05-20T06:43:43;101503.45;;;21.07;43.04
76827;BME280;65788;52.284;20.890;2023-05-20T06:46:09;101503.56;;;21.11;43.13
76827;BME280;65788;52.284;20.890;2023-05-20T06:48:36;101503.78;;;21.14;43.10
76827;BME280;65788;52.284;20.890;2023-05-20T06:51:06;101500.69;;;21.13;43.12
76827;BME280;65788;52.284;20.890;2023-05-20T06:53:35;101504.38;;;21.13;43.13
76827;BME280;65788;52.284;20.890;2023-05-20T06:56:01;101498.82;;;21.16;43.03
76827;BME280;65788;52.284;20.890;2023-05-20T06:58:28;101501.31;;;21.18;43.00
76827;BME280;65788;52.284;20.890;2023-05-20T07:00:55;101503.72;;;21.20;43.02
76827;BME280;65788;52.284;20.890;2023-05-20T07:03:22;101502.18;;;21.21;42.99
76827;BME280;65788;52.284;20.890;2023-05-20T07:05:50;101501.77;;;21.26;42.87
76827;BME280;65788;52.284;20.890;2023-05-20T07:08:17;101497.10;;;21.27;43.00
76827;BME280;65788;52.284;20.890;2023-05-20T07:10:44;101499.12;;;21.29;42.95
76827;BME280;65788;52.284;20.890;2023-05-20T07:13:12;101497.06;;;21.29;42.93
76827;BME280;65788;52.284;20.890;2023-05-20T07:15:39;101494.71;;;21.30;42.97
76827;BME280;65788;52.284;20.890;2023-05-20T07:18:06;101495.36;;;21.30;43.02
76827;BME280;65788;52.284;20.890;2023-05-20T07:20:32;101488.88;;;21.27;43.16
76827;BME280;65788;52.284;20.890;2023-05-20T07:22:59;101496.95;;;21.27;43.19
76827;BME280;65788;52.284;20.890;2023-05-20T07:25:28;101493.42;;;21.28;43.19
76827;BME280;65788;52.284;20.890;2023-05-20T07:27:55;101496.80;;;21.28;43.18
76827;BME280;65788;52.284;20.890;2023-05-20T07:30:22;101492.27;;;21.29;43.19
76827;BME280;65788;52.284;20.890;2023-05-20T07:32:49;101495.14;;;21.29;43.22
76827;BME280;65788;52.284;20.890;2023-05-20T07:35:16;101491.51;;;21.30;43.19
76827;BME280;65788;52.284;20.890;2023-05-20T07:37:42;101487.61;;;21.31;43.18
76827;BME280;65788;52.284;20.890;2023-05-20T07:40:10;101485.09;;;21.32;43.20
76827;BME280;65788;52.284;20.890;2023-05-20T07:42:36;101483.98;;;21.35;43.17
76827;BME280;65788;52.284;20.890;2023-05-20T07:45:04;101484.28;;;21.38;43.11
76827;BME280;65788;52.284;20.890;2023-05-20T07:47:31;101479.02;;;21.38;43.13
76827;BME280;65788;52.284;20.890;2023-05-20T07:49:58;101478.29;;;21.41;43.06
76827;BME280;65788;52.284;20.890;2023-05-20T07:52:25;101475.81;;;21.43;43.05
76827;BME280;65788;52.284;20.890;2023-05-20T07:54:54;101475.23;;;21.45;43.03
76827;BME280;65788;52.284;20.890;2023-05-20T07:57:21;101477.63;;;21.48;42.97
76827;BME280;65788;52.284;20.890;2023-05-20T07:59:48;101474.34;;;21.51;42.93
76827;BME280;65788;52.284;20.890;2023-05-20T08:02:14;101474.04;;;21.55;42.86
76827;BME280;65788;52.284;20.890;2023-05-20T08:04:43;101471.98;;;21.60;42.72
76827;BME280;65788;52.284;20.890;2023-05-20T08:07:10;101468.58;;;21.69;42.56
76827;BME280;65788;52.284;20.890;2023-05-20T08:09:37;101467.77;;;21.73;42.48
76827;BME280;65788;52.284;20.890;2023-05-20T08:12:05;101470.50;;;21.76;42.51
76827;BME280;65788;52.284;20.890;2023-05-20T08:14:32;101471.77;;;21.85;42.31
76827;BME280;65788;52.284;20.890;2023-05-20T08:16:59;101468.73;;;21.89;42.20
76827;BME280;65788;52.284;20.890;2023-05-20T08:19:26;101468.20;;;21.92;42.18
76827;BME280;65788;52.284;20.890;2023-05-20T08:21:53;101460.36;;;21.95;42.11
76827;BME280;65788;52.284;20.890;2023-05-20T08:24:20;101466.15;;;22.01;42.02
76827;BME280;65788;52.284;20.890;2023-05-20T08:26:47;101467.70;;;22.03;41.96
76827;BME280;65788;52.284;20.890;2023-05-20T08:29:14;101469.58;;;21.98;42.09
76827;BME280;65788;52.284;20.890;2023-05-20T08:31:40;101459.16;;;21.98;42.18
76827;BME280;65788;52.284;20.890;2023-05-20T08:34:07;101463.83;;;22.05;42.05
76827;BME280;65788;52.284;20.890;2023-05-20T08:36:34;101469.10;;;22.10;41.98
76827;BME280;65788;52.284;20.890;2023-05-20T08:39:01;101464.42;;;22.14;41.91
76827;BME280;65788;52.284;20.890;2023-05-20T08:41:28;101467.05;;;22.20;41.83
76827;BME280;65788;52.284;20.890;2023-05-20T08:43:56;101465.76;;;22.36;41.50
76827;BME280;65788;52.284;20.890;2023-05-20T08:46:24;101458.73;;;22.41;41.47
76827;BME280;65788;52.284;20.890;2023-05-20T08:48:52;101458.12;;;22.45;41.45
76827;BME280;65788;52.284;20.890;2023-05-20T08:51:20;101456.03;;;22.54;41.36
76827;BME280;65788;52.284;20.890;2023-05-20T08:53:49;101449.14;;;22.66;41.16
76827;BME280;65788;52.284;20.890;2023-05-20T08:56:16;101442.66;;;22.78;40.97
76827;BME280;65788;52.284;20.890;2023-05-20T08:58:43;101439.74;;;22.87;40.80
76827;BME280;65788;52.284;20.890;2023-05-20T09:01:12;101445.80;;;23.00;40.55
76827;BME280;65788;52.284;20.890;2023-05-20T09:03:39;101446.00;;;23.11;40.35
76827;BME280;65788;52.284;20.890;2023-05-20T09:06:07;101440.83;;;23.26;40.25
76827;BME280;65788;52.284;20.890;2023-05-20T09:08:35;101444.59;;;23.37;40.05
76827;BME280;65788;52.284;20.890;2023-05-20T09:11:02;101441.00;;;23.40;39.99
76827;BME280;65788;52.284;20.890;2023-05-20T09:13:30;101441.10;;;23.57;39.71
76827;BME280;65788;52.284;20.890;2023-05-20T09:16:00;101441.78;;;23.65;39.66
76827;BME280;65788;52.284;20.890;2023-05-20T09:18:28;101438.01;;;23.75;39.56
76827;BME280;65788;52.284;20.890;2023-05-20T09:20:55;101436.83;;;23.72;39.69
76827;BME280;65788;52.284;20.890;2023-05-20T09:23:22;101434.31;;;24.07;39.07
76827;BME280;65788;52.284;20.890;2023-05-20T09:25:51;101429.22;;;24.29;38.69
76827;BME280;65788;52.284;20.890;2023-05-20T09:28:19;101430.41;;;23.78;39.67
76827;BME280;65788;52.284;20.890;2023-05-20T09:30:48;101432.50;;;23.93;39.63
76827;BME280;65788;52.284;20.890;2023-05-20T09:33:15;101432.45;;;24.27;38.94
76827;BME280;65788;52.284;20.890;2023-05-20T09:35:43;101436.28;;;23.76;39.99
76827;BME280;65788;52.284;20.890;2023-05-20T09:38:11;101438.21;;;23.33;41.10
76827;BME280;65788;52.284;20.890;2023-05-20T09:40:41;101431.69;;;23.48;40.93
76827;BME280;65788;52.284;20.890;2023-05-20T09:43:10;101426.60;;;23.26;41.33
76827;BME280;65788;52.284;20.890;2023-05-20T09:45:37;101429.02;;;23.01;41.89
76827;BME280;65788;52.284;20.890;2023-05-20T09:48:06;101431.37;;;22.98;42.03
76827;BME280;65788;52.284;20.890;2023-05-20T09:50:36;101430.47;;;23.29;41.84
76827;BME280;65788;52.284;20.890;2023-05-20T09:53:03;101424.03;;;25.60;37.19
76827;BME280;65788;52.284;20.890;2023-05-20T09:55:31;101424.92;;;24.41;39.55
76827;BME280;65788;52.284;20.890;2023-05-20T09:58:01;101419.05;;;25.52;37.55
76827;BME280;65788;52.284;20.890;2023-05-20T10:00:29;101416.38;;;25.85;36.93
76827;BME280;65788;52.284;20.890;2023-05-20T10:02:56;101413.26;;;25.72;37.35
76827;BME280;65788;52.284;20.890;2023-05-20T10:05:32;101411.63;;;25.63;37.51
76827;BME280;65788;52.284;20.890;2023-05-20T10:13:59;101415.54;;;25.49;38.12
76827;BME280;65788;52.284;20.890;2023-05-20T10:17:03;101415.46;;;23.70;42.31
76827;BME280;65788;52.284;20.890;2023-05-20T10:19:34;101415.17;;;23.47;43.03
76827;BME280;65788;52.284;20.890;2023-05-20T10:22:06;101412.81;;;24.83;40.14
76827;BME280;65788;52.284;20.890;2023-05-20T10:24:39;101417.54;;;23.89;41.76
76827;BME280;65788;52.284;20.890;2023-05-20T10:27:09;101411.38;;;24.46;41.35
76827;BME280;65788;52.284;20.890;2023-05-20T10:29:54;101401.83;;;26.47;37.07
76827;BME280;65788;52.284;20.890;2023-05-20T10:32:31;101408.35;;;24.72;40.24
76827;BME280;65788;52.284;20.890;2023-05-20T10:35:01;101406.58;;;25.34;39.20
76827;BME280;65788;52.284;20.890;2023-05-20T10:37:48;101400.02;;;25.30;39.22
76827;BME280;65788;52.284;20.890;2023-05-20T10:40:17;101394.16;;;25.43;38.87
76827;BME280;65788;52.284;20.890;2023-05-20T10:42:45;101390.88;;;24.77;40.06
76827;BME280;65788;52.284;20.890;2023-05-20T10:45:26;101393.09;;;24.42;40.83
76827;BME280;65788;52.284;20.890;2023-05-20T10:47:57;101388.85;;;24.29;41.04
76827;BME280;65788;52.284;20.890;2023-05-20T10:50:32;101377.27;;;24.17;41.37
76827;BME280;65788;52.284;20.890;2023-05-20T10:53:06;101370.48;;;23.94;42.01
76827;BME280;65788;52.284;20.890;2023-05-20T10:55:38;101367.21;;;23.89;42.22
76827;BME280;65788;52.284;20.890;2023-05-20T10:58:06;101362.68;;;23.75;42.60
76827;BME280;65788;52.284;20.890;2023-05-20T11:00:34;101362.59;;;23.76;42.44
76827;BME280;65788;52.284;20.890;2023-05-20T11:03:03;101361.36;;;23.70;42.68
76827;BME280;65788;52.284;20.890;2023-05-20T11:05:31;101364.83;;;23.65;42.90
76827;BME280;65788;52.284;20.890;2023-05-20T11:08:03;101361.35;;;23.66;42.87
76827;BME280;65788;52.284;20.890;2023-05-20T11:10:30;101358.72;;;23.66;42.89
76827;BME280;65788;52.284;20.890;2023-05-20T11:12:57;101354.30;;;23.66;42.87
76827;BME280;65788;52.284;20.890;2023-05-20T11:15:24;101348.06;;;23.66;42.81
76827;BME280;65788;52.284;20.890;2023-05-20T11:17:55;101347.55;;;23.61;43.14
76827;BME280;65788;52.284;20.890;2023-05-20T11:20:23;101340.70;;;23.62;43.21
76827;BME280;65788;52.284;20.890;2023-05-20T11:22:50;101337.65;;;23.61;43.12
76827;BME280;65788;52.284;20.890;2023-05-20T11:25:18;101336.05;;;23.59;43.14
76827;BME280;65788;52.284;20.890;2023-05-20T11:27:46;101332.27;;;23.57;43.10
76827;BME280;65788;52.284;20.890;2023-05-20T11:30:13;101337.27;;;23.46;43.31
76827;BME280;65788;52.284;20.890;2023-05-20T11:32:43;101336.58;;;23.46;43.40
76827;BME280;65788;52.284;20.890;2023-05-20T11:35:23;101337.71;;;23.43;43.60
76827;BME280;65788;52.284;20.890;2023-05-20T11:40:32;101333.02;;;23.55;44.05
76827;BME280;65788;52.284;20.890;2023-05-20T11:43:00;101337.27;;;23.56;43.80
76827;BME280;65788;52.284;20.890;2023-05-20T11:45:41;101332.98;;;23.62;42.80
76827;BME280;65788;52.284;20.890;2023-05-20T11:48:09;101337.33;;;23.58;42.52
76827;BME280;65788;52.284;20.890;2023-05-20T11:50:39;101339.70;;;23.52;42.72
76827;BME280;65788;52.284;20.890;2023-05-20T11:53:07;101342.09;;;23.51;42.97
76827;BME280;65788;52.284;20.890;2023-05-20T11:55:51;101337.40;;;23.55;42.87
76827;BME280;65788;52.284;20.890;2023-05-20T11:58:20;101337.99;;;23.48;42.98
76827;BME280;65788;52.284;20.890;2023-05-20T12:00:47;101336.42;;;23.48;43.04
76827;BME280;65788;52.284;20.890;2023-05-20T12:03:14;101334.34;;;23.47;42.97
76827;BME280;65788;52.284;20.890;2023-05-20T12:05:42;101332.01;;;23.33;44.26
76827;BME280;65788;52.284;20.890;2023-05-20T12:08:09;101332.15;;;23.18;45.58
76827;BME280;65788;52.284;20.890;2023-05-20T12:10:36;101326.59;;;23.39;44.47
76827;BME280;65788;52.284;20.890;2023-05-20T12:13:03;101324.92;;;23.43;44.97
76827;BME280;65788;52.284;20.890;2023-05-20T12:15:34;101324.16;;;23.42;44.57
76827;BME280;65788;52.284;20.890;2023-05-20T12:18:04;101327.85;;;23.40;44.41
76827;BME280;65788;52.284;20.890;2023-05-20T12:20:31;101326.36;;;23.39;44.22
76827;BME280;65788;52.284;20.890;2023-05-20T12:23:00;101325.41;;;23.39;44.24
76827;BME280;65788;52.284;20.890;2023-05-20T12:25:27;101323.80;;;23.33;44.11
76827;BME280;65788;52.284;20.890;2023-05-20T12:27:54;101326.86;;;23.26;44.31
76827;BME280;65788;52.284;20.890;2023-05-20T12:30:22;101329.65;;;23.32;44.10
76827;BME280;65788;52.284;20.890;2023-05-20T12:32:50;101326.75;;;23.35;43.80
76827;BME280;65788;52.284;20.890;2023-05-20T12:35:25;101329.12;;;23.33;43.84
76827;BME280;65788;52.284;20.890;2023-05-20T12:38:01;101328.58;;;23.25;43.95
76827;BME280;65788;52.284;20.890;2023-05-20T12:40:28;101328.36;;;23.10;44.37
76827;BME280;65788;52.284;20.890;2023-05-20T12:42:55;101324.09;;;23.00;44.43
76827;BME280;65788;52.284;20.890;2023-05-20T12:45:22;101326.77;;;22.98;44.90
76827;BME280;65788;52.284;20.890;2023-05-20T12:47:48;101327.72;;;22.94;45.06
76827;BME280;65788;52.284;20.890;2023-05-20T12:50:15;101325.86;;;22.89;44.93
76827;BME280;65788;52.284;20.890;2023-05-20T12:52:42;101320.98;;;22.88;44.83
76827;BME280;65788;52.284;20.890;2023-05-20T12:55:09;101319.33;;;22.89;45.30